sensor_id;sensor_type;location;lat;lon;timestamp;P1;durP1;ratioP1;P2;durP2;ratioP2
63046;SDS011;62025;39.238;9.126;2023-08-01T00:00:57;4.65;;;2.05;;
63046;SDS011;62025;39.238;9.126;2023-08-01T00:03:23;5.75;;;2.15;;
63046;SDS011;62025;39.238;9.126;2023-08-01T00:05:49;8.43;;;2.30;;
63046;SDS011;62025;39.238;9.126;2023-08-01T00:08:15;3.65;;;1.60;;
63046;SDS011;62025;39.238;9.126;2023-08-01T00:10:41;9.80;;;2.25;;
63046;SDS011;62025;39.238;9.126;2023-08-01T00:13:07;5.13;;;1.90;;
63046;SDS011;62025;39.238;9.126;2023-08-01T00:15:34;5.63;;;2.17;;
63046;SDS011;62025;39.238;9.126;2023-08-01T00:18:00;7.03;;;2.20;;
63046;SDS011;62025;39.238;9.126;2023-08-01T00:20:26;4.80;;;1.92;;
63046;SDS011;62025;39.238;9.126;2023-08-01T00:22:52;8.88;;;2.28;;
63046;SDS011;62025;39.238;9.126;2023-08-01T00:25:19;8.00;;;2.70;;
63046;SDS011;62025;39.238;9.126;2023-08-01T00:27:45;4.60;;;2.20;;
63046;SDS011;62025;39.238;9.126;2023-08-01T00:30:11;7.63;;;2.00;;
63046;SDS011;62025;39.238;9.126;2023-08-01T00:32:37;7.85;;;2.28;;
63046;SDS011;62025;39.238;9.126;2023-08-01T00:35:03;4.10;;;2.00;;
63046;SDS011;62025;39.238;9.126;2023-08-01T00:37:30;4.90;;;1.80;;
63046;SDS011;62025;39.238;9.126;2023-08-01T00:39:56;5.47;;;1.98;;
63046;SDS011;62025;39.238;9.126;2023-08-01T00:42:22;6.90;;;2.30;;
63046;SDS011;62025;39.238;9.126;2023-08-01T00:44:48;5.90;;;1.95;;
63046;SDS011;62025;39.238;9.126;2023-08-01T00:47:14;3.83;;;1.90;;
63046;SDS011;62025;39.238;9.126;2023-08-01T00:49:40;4.47;;;1.95;;
63046;SDS011;62025;39.238;9.126;2023-08-01T00:52:07;5.60;;;1.90;;
63046;SDS011;62025;39.238;9.126;2023-08-01T00:54:34;4.45;;;1.80;;
63046;SDS011;62025;39.238;9.126;2023-08-01T00:57:05;5.43;;;1.90;;
63046;SDS011;62025;39.238;9.126;2023-08-01T00:59:31;7.53;;;2.30;;
63046;SDS011;62025;39.238;9.126;2023-08-01T01:02:00;5.05;;;2.10;;
63046;SDS011;62025;39.238;9.126;2023-08-01T01:04:27;6.68;;;2.00;;
63046;SDS011;62025;39.238;9.126;2023-08-01T01:07:03;6.10;;;1.90;;
63046;SDS011;62025;39.238;9.126;2023-08-01T01:09:31;4.95;;;2.05;;
63046;SDS011;62025;39.238;9.126;2023-08-01T01:11:58;6.28;;;1.98;;
63046;SDS011;62025;39.238;9.126;2023-08-01T01:14:28;6.90;;;2.13;;
63046;SDS011;62025;39.238;9.126;2023-08-01T01:16:54;9.40;;;2.33;;
63046;SDS011;62025;39.238;9.126;2023-08-01T01:19:21;7.22;;;2.17;;
63046;SDS011;62025;39.238;9.126;2023-08-01T01:21:47;5.85;;;2.03;;
63046;SDS011;62025;39.238;9.126;2023-08-01T01:24:14;7.03;;;2.20;;
63046;SDS011;62025;39.238;9.126;2023-08-01T01:26:41;5.50;;;2.08;;
63046;SDS011;62025;39.238;9.126;2023-08-01T01:29:08;4.43;;;2.00;;
63046;SDS011;62025;39.238;9.126;2023-08-01T01:31:35;5.15;;;2.15;;
63046;SDS011;62025;39.238;9.126;2023-08-01T01:34:02;5.47;;;2.50;;
63046;SDS011;62025;39.238;9.126;2023-08-01T01:36:29;4.95;;;1.80;;
63046;SDS011;62025;39.238;9.126;2023-08-01T01:38:55;5.38;;;2.00;;
63046;SDS011;62025;39.238;9.126;2023-08-01T01:41:21;7.60;;;2.05;;
63046;SDS011;62025;39.238;9.126;2023-08-01T01:43:48;5.15;;;2.03;;
63046;SDS011;62025;39.238;9.126;2023-08-01T01:46:14;4.38;;;2.03;;
63046;SDS011;62025;39.238;9.126;2023-08-01T01:48:40;5.45;;;2.10;;
63046;SDS011;62025;39.238;9.126;2023-08-01T01:51:07;7.47;;;2.00;;
63046;SDS011;62025;39.238;9.126;2023-08-01T01:53:34;5.35;;;2.13;;
63046;SDS011;62025;39.238;9.126;2023-08-01T01:56:00;6.13;;;2.25;;
63046;SDS011;62025;39.238;9.126;2023-08-01T01:58:26;5.97;;;2.22;;
63046;SDS011;62025;39.238;9.126;2023-08-01T02:00:53;6.20;;;2.15;;
63046;SDS011;62025;39.238;9.126;2023-08-01T02:03:19;7.47;;;1.80;;
63046;SDS011;62025;39.238;9.126;2023-08-01T02:05:44;6.65;;;2.05;;
63046;SDS011;62025;39.238;9.126;2023-08-01T02:08:11;11.15;;;2.40;;
63046;SDS011;62025;39.238;9.126;2023-08-01T02:10:36;7.15;;;1.88;;
63046;SDS011;62025;39.238;9.126;2023-08-01T02:13:02;6.95;;;2.30;;
63046;SDS011;62025;39.238;9.126;2023-08-01T02:15:28;7.32;;;2.40;;
63046;SDS011;62025;39.238;9.126;2023-08-01T02:17:54;8.75;;;2.00;;
63046;SDS011;62025;39.238;9.126;2023-08-01T02:20:21;6.20;;;2.47;;
63046;SDS011;62025;39.238;9.126;2023-08-01T02:22:47;3.63;;;1.80;;
63046;SDS011;62025;39.238;9.126;2023-08-01T02:25:13;5.75;;;2.10;;
63046;SDS011;62025;39.238;9.126;2023-08-01T02:27:39;7.20;;;2.30;;
63046;SDS011;62025;39.238;9.126;2023-08-01T02:30:05;7.57;;;2.60;;
63046;SDS011;62025;39.238;9.126;2023-08-01T02:32:33;6.07;;;2.38;;
63046;SDS011;62025;39.238;9.126;2023-08-01T02:34:59;7.75;;;2.40;;
63046;SDS011;62025;39.238;9.126;2023-08-01T02:37:25;5.43;;;2.03;;
63046;SDS011;62025;39.238;9.126;2023-08-01T02:39:51;5.10;;;2.00;;
63046;SDS011;62025;39.238;9.126;2023-08-01T02:42:17;6.18;;;2.17;;
63046;SDS011;62025;39.238;9.126;2023-08-01T02:44:43;6.35;;;2.35;;
63046;SDS011;62025;39.238;9.126;2023-08-01T02:47:09;6.40;;;2.25;;
63046;SDS011;62025;39.238;9.126;2023-08-01T02:49:35;6.90;;;2.30;;
63046;SDS011;62025;39.238;9.126;2023-08-01T02:52:01;4.38;;;1.80;;
63046;SDS011;62025;39.238;9.126;2023-08-01T02:54:27;10.60;;;2.45;;
63046;SDS011;62025;39.238;9.126;2023-08-01T02:56:53;8.93;;;2.28;;
63046;SDS011;62025;39.238;9.126;2023-08-01T02:59:19;8.48;;;2.53;;
63046;SDS011;62025;39.238;9.126;2023-08-01T03:01:45;7.22;;;2.47;;
63046;SDS011;62025;39.238;9.126;2023-08-01T03:04:11;5.55;;;2.22;;
63046;SDS011;62025;39.238;9.126;2023-08-01T03:06:37;6.13;;;2.22;;
63046;SDS011;62025;39.238;9.126;2023-08-01T03:09:04;9.07;;;2.60;;
63046;SDS011;62025;39.238;9.126;2023-08-01T03:11:35;7.50;;;2.30;;
63046;SDS011;62025;39.238;9.126;2023-08-01T03:14:02;5.43;;;2.00;;
63046;SDS011;62025;39.238;9.126;2023-08-01T03:16:30;9.10;;;2.10;;
63046;SDS011;62025;39.238;9.126;2023-08-01T03:18:56;8.77;;;2.08;;
63046;SDS011;62025;39.238;9.126;2023-08-01T03:21:23;6.95;;;2.40;;
63046;SDS011;62025;39.238;9.126;2023-08-01T03:23:49;8.27;;;2.17;;
63046;SDS011;62025;39.238;9.126;2023-08-01T03:26:15;5.65;;;1.95;;
63046;SDS011;62025;39.238;9.126;2023-08-01T03:28:43;8.30;;;2.05;;
63046;SDS011;62025;39.238;9.126;2023-08-01T03:31:09;4.70;;;2.13;;
63046;SDS011;62025;39.238;9.126;2023-08-01T03:33:35;6.47;;;2.45;;
63046;SDS011;62025;39.238;9.126;2023-08-01T03:36:02;7.45;;;2.00;;
63046;SDS011;62025;39.238;9.126;2023-08-01T03:38:29;8.05;;;2.15;;
63046;SDS011;62025;39.238;9.126;2023-08-01T03:40:55;6.95;;;1.80;;
63046;SDS011;62025;39.238;9.126;2023-08-01T03:43:21;3.85;;;1.88;;
63046;SDS011;62025;39.238;9.126;2023-08-01T03:45:49;6.93;;;2.17;;
63046;SDS011;62025;39.238;9.126;2023-08-01T03:48:16;7.10;;;2.30;;
63046;SDS011;62025;39.238;9.126;2023-08-01T03:50:43;6.13;;;2.10;;
63046;SDS011;62025;39.238;9.126;2023-08-01T03:53:08;5.60;;;2.30;;
63046;SDS011;62025;39.238;9.126;2023-08-01T03:55:35;8.43;;;2.30;;
63046;SDS011;62025;39.238;9.126;2023-08-01T03:58:00;7.35;;;2.40;;
63046;SDS011;62025;39.238;9.126;2023-08-01T04:00:26;8.82;;;2.22;;
63046;SDS011;62025;39.238;9.126;2023-08-01T04:02:58;5.70;;;2.28;;
63046;SDS011;62025;39.238;9.126;2023-08-01T04:05:24;5.43;;;2.00;;
63046;SDS011;62025;39.238;9.126;2023-08-01T04:07:51;5.35;;;2.10;;
63046;SDS011;62025;39.238;9.126;2023-08-01T04:10:20;6.53;;;2.40;;
63046;SDS011;62025;39.238;9.126;2023-08-01T04:12:47;7.85;;;2.30;;
63046;SDS011;62025;39.238;9.126;2023-08-01T04:15:13;7.20;;;2.20;;
63046;SDS011;62025;39.238;9.126;2023-08-01T04:17:39;5.65;;;2.15;;
63046;SDS011;62025;39.238;9.126;2023-08-01T04:20:05;8.32;;;2.38;;
63046;SDS011;62025;39.238;9.126;2023-08-01T04:22:32;7.03;;;2.45;;
63046;SDS011;62025;39.238;9.126;2023-08-01T04:24:58;6.35;;;2.40;;
63046;SDS011;62025;39.238;9.126;2023-08-01T04:27:24;8.43;;;2.60;;
63046;SDS011;62025;39.238;9.126;2023-08-01T04:29:51;5.68;;;2.22;;
63046;SDS011;62025;39.238;9.126;2023-08-01T04:32:17;6.05;;;2.22;;
63046;SDS011;62025;39.238;9.126;2023-08-01T04:34:43;5.05;;;2.60;;
63046;SDS011;62025;39.238;9.126;2023-08-01T04:37:09;7.35;;;2.80;;
63046;SDS011;62025;39.238;9.126;2023-08-01T04:39:36;10.18;;;2.92;;
63046;SDS011;62025;39.238;9.126;2023-08-01T04:42:02;9.23;;;2.90;;
63046;SDS011;62025;39.238;9.126;2023-08-01T04:44:28;6.35;;;2.58;;
63046;SDS011;62025;39.238;9.126;2023-08-01T04:46:55;7.35;;;2.38;;
63046;SDS011;62025;39.238;9.126;2023-08-01T04:49:21;6.90;;;2.63;;
63046;SDS011;62025;39.238;9.126;2023-08-01T04:51:49;6.40;;;2.65;;
63046;SDS011;62025;39.238;9.126;2023-08-01T04:54:16;8.57;;;2.30;;
63046;SDS011;62025;39.238;9.126;2023-08-01T04:56:42;5.72;;;2.35;;
63046;SDS011;62025;39.238;9.126;2023-08-01T04:59:08;8.07;;;2.40;;
63046;SDS011;62025;39.238;9.126;2023-08-01T05:01:34;7.57;;;2.30;;
63046;SDS011;62025;39.238;9.126;2023-08-01T05:04:00;8.65;;;2.25;;
63046;SDS011;62025;39.238;9.126;2023-08-01T05:06:26;8.65;;;2.20;;
63046;SDS011;62025;39.238;9.126;2023-08-01T05:08:53;10.25;;;2.60;;
63046;SDS011;62025;39.238;9.126;2023-08-01T05:11:19;8.32;;;2.47;;
63046;SDS011;62025;39.238;9.126;2023-08-01T05:13:46;6.13;;;2.60;;
63046;SDS011;62025;39.238;9.126;2023-08-01T05:16:12;10.77;;;2.45;;
63046;SDS011;62025;39.238;9.126;2023-08-01T05:18:38;7.68;;;2.25;;
63046;SDS011;62025;39.238;9.126;2023-08-01T05:21:04;8.15;;;2.40;;
63046;SDS011;62025;39.238;9.126;2023-08-01T05:23:30;5.13;;;2.30;;
63046;SDS011;62025;39.238;9.126;2023-08-01T05:25:56;7.97;;;2.20;;
63046;SDS011;62025;39.238;9.126;2023-08-01T05:28:23;11.80;;;2.53;;
63046;SDS011;62025;39.238;9.126;2023-08-01T05:30:49;9.52;;;2.83;;
63046;SDS011;62025;39.238;9.126;2023-08-01T05:33:15;6.25;;;2.70;;
63046;SDS011;62025;39.238;9.126;2023-08-01T05:35:41;13.15;;;2.67;;
63046;SDS011;62025;39.238;9.126;2023-08-01T05:38:07;7.68;;;2.28;;
63046;SDS011;62025;39.238;9.126;2023-08-01T05:40:33;9.10;;;2.63;;
63046;SDS011;62025;39.238;9.126;2023-08-01T05:42:58;10.27;;;2.80;;
63046;SDS011;62025;39.238;9.126;2023-08-01T05:45:25;5.93;;;2.50;;
63046;SDS011;62025;39.238;9.126;2023-08-01T05:47:51;6.93;;;2.50;;
63046;SDS011;62025;39.238;9.126;2023-08-01T05:50:17;6.90;;;2.63;;
63046;SDS011;62025;39.238;9.126;2023-08-01T05:52:43;6.88;;;2.50;;
63046;SDS011;62025;39.238;9.126;2023-08-01T05:55:09;9.65;;;2.38;;
63046;SDS011;62025;39.238;9.126;2023-08-01T05:57:35;6.68;;;2.40;;
63046;SDS011;62025;39.238;9.126;2023-08-01T06:00:01;7.05;;;2.67;;
63046;SDS011;62025;39.238;9.126;2023-08-01T06:02:37;4.85;;;2.42;;
63046;SDS011;62025;39.238;9.126;2023-08-01T06:05:03;10.40;;;2.80;;
63046;SDS011;62025;39.238;9.126;2023-08-01T06:07:30;6.65;;;3.00;;
63046;SDS011;62025;39.238;9.126;2023-08-01T06:09:56;8.80;;;2.40;;
63046;SDS011;62025;39.238;9.126;2023-08-01T06:12:22;12.05;;;2.60;;
63046;SDS011;62025;39.238;9.126;2023-08-01T06:14:48;11.40;;;2.92;;
63046;SDS011;62025;39.238;9.126;2023-08-01T06:17:14;9.43;;;2.72;;
63046;SDS011;62025;39.238;9.126;2023-08-01T06:19:40;10.95;;;2.53;;
63046;SDS011;62025;39.238;9.126;2023-08-01T06:22:08;6.53;;;2.33;;
63046;SDS011;62025;39.238;9.126;2023-08-01T06:24:34;7.40;;;2.92;;
63046;SDS011;62025;39.238;9.126;2023-08-01T06:27:00;5.85;;;2.35;;
63046;SDS011;62025;39.238;9.126;2023-08-01T06:29:26;5.68;;;2.50;;
63046;SDS011;62025;39.238;9.126;2023-08-01T06:31:52;5.55;;;2.55;;
63046;SDS011;62025;39.238;9.126;2023-08-01T06:34:18;5.22;;;2.72;;
63046;SDS011;62025;39.238;9.126;2023-08-01T06:36:43;8.00;;;2.80;;
63046;SDS011;62025;39.238;9.126;2023-08-01T06:39:09;7.25;;;2.80;;
63046;SDS011;62025;39.238;9.126;2023-08-01T06:41:36;5.65;;;2.88;;
63046;SDS011;62025;39.238;9.126;2023-08-01T06:44:02;4.97;;;2.60;;
63046;SDS011;62025;39.238;9.126;2023-08-01T06:46:28;11.18;;;2.90;;
63046;SDS011;62025;39.238;9.126;2023-08-01T06:48:54;7.78;;;2.47;;
63046;SDS011;62025;39.238;9.126;2023-08-01T06:51:21;10.88;;;3.03;;
63046;SDS011;62025;39.238;9.126;2023-08-01T06:53:47;9.88;;;3.10;;
63046;SDS011;62025;39.238;9.126;2023-08-01T06:56:13;9.43;;;2.92;;
63046;SDS011;62025;39.238;9.126;2023-08-01T06:58:39;8.57;;;2.78;;
63046;SDS011;62025;39.238;9.126;2023-08-01T07:01:05;8.90;;;3.13;;
63046;SDS011;62025;39.238;9.126;2023-08-01T07:03:31;6.55;;;2.83;;
63046;SDS011;62025;39.238;9.126;2023-08-01T07:05:57;8.60;;;3.13;;
63046;SDS011;62025;39.238;9.126;2023-08-01T07:08:23;5.78;;;3.03;;
63046;SDS011;62025;39.238;9.126;2023-08-01T07:10:49;8.05;;;2.42;;
63046;SDS011;62025;39.238;9.126;2023-08-01T07:13:15;11.07;;;3.05;;
63046;SDS011;62025;39.238;9.126;2023-08-01T07:15:42;7.65;;;3.08;;
63046;SDS011;62025;39.238;9.126;2023-08-01T07:18:08;5.18;;;2.65;;
63046;SDS011;62025;39.238;9.126;2023-08-01T07:20:34;5.53;;;3.00;;
63046;SDS011;62025;39.238;9.126;2023-08-01T07:22:59;9.80;;;3.17;;
63046;SDS011;62025;39.238;9.126;2023-08-01T07:25:25;9.73;;;3.15;;
63046;SDS011;62025;39.238;9.126;2023-08-01T07:27:51;10.88;;;3.30;;
63046;SDS011;62025;39.238;9.126;2023-08-01T07:30:17;6.05;;;3.10;;
63046;SDS011;62025;39.238;9.126;2023-08-01T07:32:43;13.02;;;3.45;;
63046;SDS011;62025;39.238;9.126;2023-08-01T07:35:09;7.18;;;2.75;;
63046;SDS011;62025;39.238;9.126;2023-08-01T07:37:35;6.25;;;3.22;;
63046;SDS011;62025;39.238;9.126;2023-08-01T07:40:04;6.65;;;3.20;;
63046;SDS011;62025;39.238;9.126;2023-08-01T07:42:31;6.13;;;3.15;;
63046;SDS011;62025;39.238;9.126;2023-08-01T07:44:57;8.60;;;3.40;;
63046;SDS011;62025;39.238;9.126;2023-08-01T07:47:23;6.63;;;3.30;;
63046;SDS011;62025;39.238;9.126;2023-08-01T07:49:49;5.65;;;3.40;;
63046;SDS011;62025;39.238;9.126;2023-08-01T07:52:15;5.68;;;3.17;;
63046;SDS011;62025;39.238;9.126;2023-08-01T07:54:41;6.45;;;3.50;;
63046;SDS011;62025;39.238;9.126;2023-08-01T07:57:07;11.45;;;3.60;;
63046;SDS011;62025;39.238;9.126;2023-08-01T07:59:33;6.57;;;3.85;;
63046;SDS011;62025;39.238;9.126;2023-08-01T08:01:59;7.88;;;3.50;;
63046;SDS011;62025;39.238;9.126;2023-08-01T08:04:25;11.15;;;4.13;;
63046;SDS011;62025;39.238;9.126;2023-08-01T08:06:51;6.38;;;3.75;;
63046;SDS011;62025;39.238;9.126;2023-08-01T08:09:17;7.40;;;3.72;;
63046;SDS011;62025;39.238;9.126;2023-08-01T08:11:43;5.97;;;3.35;;
63046;SDS011;62025;39.238;9.126;2023-08-01T08:14:09;6.75;;;3.25;;
63046;SDS011;62025;39.238;9.126;2023-08-01T08:16:36;6.47;;;3.27;;
63046;SDS011;62025;39.238;9.126;2023-08-01T08:19:03;11.43;;;3.40;;
63046;SDS011;62025;39.238;9.126;2023-08-01T08:21:28;8.00;;;3.45;;
63046;SDS011;62025;39.238;9.126;2023-08-01T08:23:54;7.63;;;4.00;;
63046;SDS011;62025;39.238;9.126;2023-08-01T08:26:20;10.60;;;4.47;;
63046;SDS011;62025;39.238;9.126;2023-08-01T08:28:47;6.03;;;4.65;;
63046;SDS011;62025;39.238;9.126;2023-08-01T08:31:12;9.07;;;4.28;;
63046;SDS011;62025;39.238;9.126;2023-08-01T08:33:38;9.20;;;4.47;;
63046;SDS011;62025;39.238;9.126;2023-08-01T08:36:04;9.07;;;3.80;;
63046;SDS011;62025;39.238;9.126;2023-08-01T08:38:30;5.18;;;3.60;;
63046;SDS011;62025;39.238;9.126;2023-08-01T08:43:56;9.80;;;4.38;;
63046;SDS011;62025;39.238;9.126;2023-08-01T08:46:23;10.32;;;4.20;;
63046;SDS011;62025;39.238;9.126;2023-08-01T08:48:59;7.03;;;3.42;;
63046;SDS011;62025;39.238;9.126;2023-08-01T08:51:26;9.18;;;3.58;;
63046;SDS011;62025;39.238;9.126;2023-08-01T08:53:53;6.03;;;3.63;;
63046;SDS011;62025;39.238;9.126;2023-08-01T08:56:21;5.88;;;3.55;;
63046;SDS011;62025;39.238;9.126;2023-08-01T08:58:48;7.27;;;3.30;;
63046;SDS011;62025;39.238;9.126;2023-08-01T09:01:15;6.20;;;3.50;;
63046;SDS011;62025;39.238;9.126;2023-08-01T09:06:14;7.57;;;4.20;;
63046;SDS011;62025;39.238;9.126;2023-08-01T09:08:54;5.72;;;3.35;;
63046;SDS011;62025;39.238;9.126;2023-08-01T09:11:26;7.97;;;3.90;;
63046;SDS011;62025;39.238;9.126;2023-08-01T09:13:52;9.43;;;3.80;;
63046;SDS011;62025;39.238;9.126;2023-08-01T09:16:18;7.50;;;3.42;;
63046;SDS011;62025;39.238;9.126;2023-08-01T09:21:17;10.75;;;3.38;;
63046;SDS011;62025;39.238;9.126;2023-08-01T09:23:44;9.82;;;3.05;;
63046;SDS011;62025;39.238;9.126;2023-08-01T09:26:17;6.47;;;3.17;;
63046;SDS011;62025;39.238;9.126;2023-08-01T09:28:55;6.10;;;3.30;;
63046;SDS011;62025;39.238;9.126;2023-08-01T09:31:28;7.95;;;3.03;;
63046;SDS011;62025;39.238;9.126;2023-08-01T09:33:55;9.82;;;3.50;;
63046;SDS011;62025;39.238;9.126;2023-08-01T09:36:22;8.60;;;3.30;;
63046;SDS011;62025;39.238;9.126;2023-08-01T09:38:50;7.45;;;3.00;;
63046;SDS011;62025;39.238;9.126;2023-08-01T09:41:17;9.55;;;2.83;;
63046;SDS011;62025;39.238;9.126;2023-08-01T09:43:44;8.52;;;3.15;;
63046;SDS011;62025;39.238;9.126;2023-08-01T09:46:12;14.05;;;2.95;;
63046;SDS011;62025;39.238;9.126;2023-08-01T09:48:39;7.30;;;3.40;;
63046;SDS011;62025;39.238;9.126;2023-08-01T09:51:12;7.43;;;2.53;;
63046;SDS011;62025;39.238;9.126;2023-08-01T09:53:47;11.98;;;2.60;;
63046;SDS011;62025;39.238;9.126;2023-08-01T09:56:25;6.07;;;3.25;;
63046;SDS011;62025;39.238;9.126;2023-08-01T09:58:53;9.18;;;3.35;;
63046;SDS011;62025;39.238;9.126;2023-08-01T10:01:22;9.88;;;3.03;;
63046;SDS011;62025;39.238;9.126;2023-08-01T10:03:49;4.90;;;3.22;;
63046;SDS011;62025;39.238;9.126;2023-08-01T10:06:22;7.95;;;3.05;;
63046;SDS011;62025;39.238;9.126;2023-08-01T10:08:51;8.07;;;3.13;;
63046;SDS011;62025;39.238;9.126;2023-08-01T10:13:45;8.00;;;3.10;;
63046;SDS011;62025;39.238;9.126;2023-08-01T10:16:12;11.57;;;3.30;;
63046;SDS011;62025;39.238;9.126;2023-08-01T10:21:07;6.35;;;3.08;;
63046;SDS011;62025;39.238;9.126;2023-08-01T10:23:41;4.65;;;2.85;;
63046;SDS011;62025;39.238;9.126;2023-08-01T10:26:09;5.97;;;3.22;;
63046;SDS011;62025;39.238;9.126;2023-08-01T10:28:38;7.72;;;3.63;;
63046;SDS011;62025;39.238;9.126;2023-08-01T10:31:10;10.73;;;3.30;;
63046;SDS011;62025;39.238;9.126;2023-08-01T10:33:45;8.07;;;3.50;;
63046;SDS011;62025;39.238;9.126;2023-08-01T10:36:24;9.75;;;3.35;;
63046;SDS011;62025;39.238;9.126;2023-08-01T10:44:07;10.70;;;3.83;;
63046;SDS011;62025;39.238;9.126;2023-08-01T10:49:11;8.63;;;4.30;;
63046;SDS011;62025;39.238;9.126;2023-08-01T10:51:37;6.82;;;4.30;;
63046;SDS011;62025;39.238;9.126;2023-08-01T10:54:02;8.82;;;4.50;;
63046;SDS011;62025;39.238;9.126;2023-08-01T10:56:28;10.88;;;4.45;;
63046;SDS011;62025;39.238;9.126;2023-08-01T10:58:56;12.43;;;4.75;;
63046;SDS011;62025;39.238;9.126;2023-08-01T11:01:23;9.65;;;4.63;;
63046;SDS011;62025;39.238;9.126;2023-08-01T11:03:51;10.27;;;5.13;;
63046;SDS011;62025;39.238;9.126;2023-08-01T11:06:17;10.82;;;4.80;;
63046;SDS011;62025;39.238;9.126;2023-08-01T11:08:43;7.78;;;5.25;;
63046;SDS011;62025;39.238;9.126;2023-08-01T11:11:12;10.77;;;6.28;;
63046;SDS011;62025;39.238;9.126;2023-08-01T11:13:39;7.47;;;5.22;;
63046;SDS011;62025;39.238;9.126;2023-08-01T11:16:05;11.27;;;5.63;;
63046;SDS011;62025;39.238;9.126;2023-08-01T11:18:44;7.88;;;5.95;;
63046;SDS011;62025;39.238;9.126;2023-08-01T11:21:10;10.13;;;5.45;;
63046;SDS011;62025;39.238;9.126;2023-08-01T11:23:37;7.72;;;5.70;;
63046;SDS011;62025;39.238;9.126;2023-08-01T11:26:09;12.32;;;6.47;;
63046;SDS011;62025;39.238;9.126;2023-08-01T11:28:36;8.90;;;6.05;;
63046;SDS011;62025;39.238;9.126;2023-08-01T11:31:10;11.15;;;6.15;;
63046;SDS011;62025;39.238;9.126;2023-08-01T11:33:38;9.60;;;5.60;;
63046;SDS011;62025;39.238;9.126;2023-08-01T11:36:04;8.95;;;5.82;;
63046;SDS011;62025;39.238;9.126;2023-08-01T11:38:31;9.55;;;5.72;;
63046;SDS011;62025;39.238;9.126;2023-08-01T11:41:03;8.05;;;5.28;;
63046;SDS011;62025;39.238;9.126;2023-08-01T11:43:42;9.02;;;5.80;;
63046;SDS011;62025;39.238;9.126;2023-08-01T11:46:09;10.18;;;5.88;;
63046;SDS011;62025;39.238;9.126;2023-08-01T11:48:35;8.60;;;5.68;;
63046;SDS011;62025;39.238;9.126;2023-08-01T11:51:01;8.55;;;5.47;;
63046;SDS011;62025;39.238;9.126;2023-08-01T11:53:28;9.15;;;5.63;;
63046;SDS011;62025;39.238;9.126;2023-08-01T11:55:55;7.53;;;5.17;;
63046;SDS011;62025;39.238;9.126;2023-08-01T11:58:30;9.13;;;5.05;;
63046;SDS011;62025;39.238;9.126;2023-08-01T12:01:05;8.45;;;5.45;;
63046;SDS011;62025;39.238;9.126;2023-08-01T12:03:50;9.45;;;5.20;;
63046;SDS011;62025;39.238;9.126;2023-08-01T12:06:19;8.05;;;5.32;;
63046;SDS011;62025;39.238;9.126;2023-08-01T12:08:48;11.18;;;5.50;;
63046;SDS011;62025;39.238;9.126;2023-08-01T12:11:23;8.30;;;5.20;;
63046;SDS011;62025;39.238;9.126;2023-08-01T12:14:11;10.80;;;5.88;;
63046;SDS011;62025;39.238;9.126;2023-08-01T12:16:39;9.65;;;5.40;;
63046;SDS011;62025;39.238;9.126;2023-08-01T12:19:16;6.97;;;5.20;;
63046;SDS011;62025;39.238;9.126;2023-08-01T12:21:46;8.68;;;5.72;;
63046;SDS011;62025;39.238;9.126;2023-08-01T12:24:12;9.10;;;5.40;;
63046;SDS011;62025;39.238;9.126;2023-08-01T12:26:38;9.52;;;5.45;;
63046;SDS011;62025;39.238;9.126;2023-08-01T12:29:05;8.95;;;5.18;;
63046;SDS011;62025;39.238;9.126;2023-08-01T12:31:31;11.52;;;5.45;;
63046;SDS011;62025;39.238;9.126;2023-08-01T12:33:57;7.78;;;5.70;;
63046;SDS011;62025;39.238;9.126;2023-08-01T12:36:23;10.25;;;5.88;;
63046;SDS011;62025;39.238;9.126;2023-08-01T12:38:49;12.55;;;6.00;;
63046;SDS011;62025;39.238;9.126;2023-08-01T12:41:15;8.13;;;5.47;;
63046;SDS011;62025;39.238;9.126;2023-08-01T12:43:41;9.25;;;5.63;;
63046;SDS011;62025;39.238;9.126;2023-08-01T12:46:07;9.57;;;5.45;;
63046;SDS011;62025;39.238;9.126;2023-08-01T12:48:33;7.90;;;4.72;;
63046;SDS011;62025;39.238;9.126;2023-08-01T12:51:00;8.73;;;5.00;;
63046;SDS011;62025;39.238;9.126;2023-08-01T12:53:25;11.25;;;5.60;;
63046;SDS011;62025;39.238;9.126;2023-08-01T12:55:56;10.68;;;5.10;;
63046;SDS011;62025;39.238;9.126;2023-08-01T12:58:23;8.95;;;5.60;;
63046;SDS011;62025;39.238;9.126;2023-08-01T13:00:49;8.63;;;5.15;;
63046;SDS011;62025;39.238;9.126;2023-08-01T13:03:15;10.18;;;5.00;;
63046;SDS011;62025;39.238;9.126;2023-08-01T13:05:41;9.63;;;5.10;;
63046;SDS011;62025;39.238;9.126;2023-08-01T13:08:08;7.85;;;5.03;;
63046;SDS011;62025;39.238;9.126;2023-08-01T13:10:35;9.30;;;5.07;;
63046;SDS011;62025;39.238;9.126;2023-08-01T13:13:03;9.07;;;4.60;;
63046;SDS011;62025;39.238;9.126;2023-08-01T13:15:29;7.85;;;5.15;;
63046;SDS011;62025;39.238;9.126;2023-08-01T13:17:56;10.88;;;5.50;;
63046;SDS011;62025;39.238;9.126;2023-08-01T13:20:22;8.50;;;5.03;;
63046;SDS011;62025;39.238;9.126;2023-08-01T13:22:48;7.28;;;4.75;;
63046;SDS011;62025;39.238;9.126;2023-08-01T13:25:16;8.18;;;5.25;;
63046;SDS011;62025;39.238;9.126;2023-08-01T13:27:43;10.93;;;5.85;;
63046;SDS011;62025;39.238;9.126;2023-08-01T13:30:09;12.23;;;7.45;;
63046;SDS011;62025;39.238;9.126;2023-08-01T13:32:39;10.80;;;6.30;;
63046;SDS011;62025;39.238;9.126;2023-08-01T13:35:06;9.40;;;5.23;;
63046;SDS011;62025;39.238;9.126;2023-08-01T13:37:32;9.15;;;5.70;;
63046;SDS011;62025;39.238;9.126;2023-08-01T13:39:58;8.15;;;5.05;;
63046;SDS011;62025;39.238;9.126;2023-08-01T13:42:25;6.97;;;4.70;;
63046;SDS011;62025;39.238;9.126;2023-08-01T13:44:53;8.63;;;4.43;;
63046;SDS011;62025;39.238;9.126;2023-08-01T13:49:45;9.15;;;4.80;;
63046;SDS011;62025;39.238;9.126;2023-08-01T13:52:11;7.10;;;4.40;;
63046;SDS011;62025;39.238;9.126;2023-08-01T13:54:37;10.85;;;4.68;;
63046;SDS011;62025;39.238;9.126;2023-08-01T13:57:04;6.30;;;4.10;;
63046;SDS011;62025;39.238;9.126;2023-08-01T13:59:31;6.78;;;4.07;;
63046;SDS011;62025;39.238;9.126;2023-08-01T14:01:57;7.78;;;4.47;;
63046;SDS011;62025;39.238;9.126;2023-08-01T14:04:23;7.45;;;4.50;;
63046;SDS011;62025;39.238;9.126;2023-08-01T14:06:49;6.72;;;4.22;;
63046;SDS011;62025;39.238;9.126;2023-08-01T14:09:15;6.45;;;4.57;;
63046;SDS011;62025;39.238;9.126;2023-08-01T14:11:41;9.05;;;4.43;;
63046;SDS011;62025;39.238;9.126;2023-08-01T14:14:07;5.57;;;4.10;;
63046;SDS011;62025;39.238;9.126;2023-08-01T14:16:32;7.53;;;4.43;;
63046;SDS011;62025;39.238;9.126;2023-08-01T14:18:58;9.90;;;4.30;;
63046;SDS011;62025;39.238;9.126;2023-08-01T14:21:25;5.68;;;4.30;;
63046;SDS011;62025;39.238;9.126;2023-08-01T14:23:50;9.70;;;4.57;;
63046;SDS011;62025;39.238;9.126;2023-08-01T14:26:17;10.77;;;4.35;;
63046;SDS011;62025;39.238;9.126;2023-08-01T14:28:42;6.40;;;3.75;;
63046;SDS011;62025;39.238;9.126;2023-08-01T14:31:09;7.57;;;4.00;;
63046;SDS011;62025;39.238;9.126;2023-08-01T14:33:35;8.57;;;3.97;;
63046;SDS011;62025;39.238;9.126;2023-08-01T14:36:01;7.85;;;3.67;;
63046;SDS011;62025;39.238;9.126;2023-08-01T14:38:27;9.20;;;3.97;;
63046;SDS011;62025;39.238;9.126;2023-08-01T14:40:53;9.52;;;4.05;;
63046;SDS011;62025;39.238;9.126;2023-08-01T14:43:19;9.63;;;3.88;;
63046;SDS011;62025;39.238;9.126;2023-08-01T14:45:45;14.32;;;3.95;;
63046;SDS011;62025;39.238;9.126;2023-08-01T14:48:12;10.77;;;4.07;;
63046;SDS011;62025;39.238;9.126;2023-08-01T14:50:38;7.13;;;3.67;;
63046;SDS011;62025;39.238;9.126;2023-08-01T14:53:04;8.50;;;4.05;;
63046;SDS011;62025;39.238;9.126;2023-08-01T14:55:31;7.45;;;4.15;;
63046;SDS011;62025;39.238;9.126;2023-08-01T14:57:58;6.72;;;3.60;;
63046;SDS011;62025;39.238;9.126;2023-08-01T15:00:25;6.43;;;3.65;;
63046;SDS011;62025;39.238;9.126;2023-08-01T15:02:51;6.70;;;3.50;;
63046;SDS011;62025;39.238;9.126;2023-08-01T15:05:17;6.18;;;3.30;;
63046;SDS011;62025;39.238;9.126;2023-08-01T15:07:43;5.43;;;3.53;;